createdAt,value
2023-04-30T00:00:47.578Z,18.30
2023-04-30T00:03:33.780Z,18.40
2023-04-30T00:06:20.454Z,18.40
2023-04-30T00:09:06.410Z,19.20
2023-04-30T00:11:52.333Z,18.30
2023-04-30T00:14:38.642Z,18.30
2023-04-30T00:17:24.536Z,18.20
2023-04-30T00:20:12.198Z,18.30
2023-04-30T00:22:58.072Z,18.20
2023-04-30T00:25:44.057Z,18.00
2023-04-30T00:28:31.057Z,17.70
2023-04-30T00:31:17.010Z,17.90
2023-04-30T00:34:03.091Z,18.00
2023-04-30T00:36:49.903Z,17.90
2023-04-30T00:39:35.798Z,18.00
2023-04-30T00:42:21.562Z,18.00
2023-04-30T00:45:08.341Z,17.70
2023-04-30T00:47:55.010Z,17.50
2023-04-30T00:50:44.231Z,17.50
2023-04-30T00:53:30.545Z,17.30
2023-04-30T00:56:16.802Z,17.10
2023-04-30T00:59:03.066Z,16.90
2023-04-30T01:01:48.962Z,16.80
2023-04-30T01:04:36.038Z,16.70
2023-04-30T01:07:22.218Z,16.80
2023-04-30T01:10:09.593Z,16.70
2023-04-30T01:13:18.554Z,16.80
2023-04-30T01:16:24.250Z,16.90
2023-04-30T01:19:17.704Z,17.40
2023-04-30T01:22:05.180Z,17.70
2023-04-30T01:25:22.256Z,17.50
2023-04-30T01:28:20.254Z,17.30
2023-04-30T01:31:15.632Z,17.40
2023-04-30T01:34:01.670Z,17.40
2023-04-30T01:37:12.916Z,17.20
2023-04-30T01:40:17.011Z,17.00
2023-04-30T01:43:12.760Z,17.00
2023-04-30T01:46:17.073Z,17.30
2023-04-30T01:49:32.823Z,17.10
2023-04-30T01:52:26.931Z,17.20
2023-04-30T01:55:18.207Z,17.00
2023-04-30T01:58:09.646Z,16.90
2023-04-30T02:00:55.683Z,16.90
2023-04-30T02:03:41.710Z,16.50
2023-04-30T02:06:30.377Z,16.40
2023-04-30T02:09:17.802Z,16.50
2023-04-30T02:12:04.682Z,16.40
2023-04-30T02:14:50.876Z,16.50
2023-04-30T02:17:37.757Z,16.40
2023-04-30T02:20:24.356Z,16.30
2023-04-30T02:23:10.685Z,16.20
2023-04-30T02:25:57.012Z,16.10
2023-04-30T02:28:43.176Z,16.00
2023-04-30T02:31:29.957Z,15.80
2023-04-30T02:34:15.708Z,15.60
2023-04-30T02:37:02.947Z,15.70
2023-04-30T02:39:49.209Z,15.70
2023-04-30T02:42:35.698Z,15.60
2023-04-30T02:45:22.668Z,15.60
2023-04-30T02:48:08.576Z,15.60
2023-04-30T02:50:55.066Z,15.50
2023-04-30T02:53:41.216Z,15.50
2023-04-30T02:56:27.301Z,15.60
2023-04-30T02:59:13.891Z,15.50
2023-04-30T03:01:59.987Z,15.40
2023-04-30T03:04:46.612Z,15.20
2023-04-30T03:07:33.360Z,15.20
2023-04-30T03:10:19.379Z,15.10
2023-04-30T03:13:05.186Z,15.10
2023-04-30T03:16:00.716Z,15.10
2023-04-30T03:18:48.241Z,14.90
2023-04-30T03:21:33.963Z,14.90
2023-04-30T03:24:19.840Z,14.80
2023-04-30T03:27:05.668Z,14.80
2023-04-30T03:29:52.104Z,14.80
2023-04-30T03:32:39.057Z,14.90
2023-04-30T03:35:25.417Z,14.70
2023-04-30T03:38:11.356Z,14.70
2023-04-30T03:40:57.998Z,14.80
2023-04-30T03:43:44.440Z,14.90
2023-04-30T03:46:30.120Z,14.90
2023-04-30T03:49:16.379Z,14.90
2023-04-30T03:52:02.566Z,14.90
2023-04-30T03:54:48.308Z,14.90
2023-04-30T03:57:34.205Z,15.30
2023-04-30T04:00:20.024Z,15.20
2023-04-30T04:03:08.968Z,15.30
2023-04-30T04:05:55.289Z,15.20
2023-04-30T04:08:43.374Z,15.20
2023-04-30T04:11:29.516Z,15.10
2023-04-30T04:14:16.748Z,15.00
2023-04-30T04:17:05.587Z,15.00
2023-04-30T04:19:52.492Z,15.30
2023-04-30T04:22:38.566Z,15.50
2023-04-30T04:25:25.446Z,15.60
2023-04-30T04:28:11.758Z,15.60
2023-04-30T04:30:58.640Z,15.60
2023-04-30T04:33:44.838Z,15.50
2023-04-30T04:36:31.768Z,15.40
2023-04-30T04:39:18.308Z,15.60
2023-04-30T04:42:05.293Z,15.80
2023-04-30T04:44:51.423Z,15.60
2023-04-30T04:47:38.494Z,15.50
2023-04-30T04:50:25.261Z,15.40
2023-04-30T04:53:11.599Z,15.20
2023-04-30T04:55:57.595Z,15.20
2023-04-30T04:58:45.636Z,15.00
2023-04-30T05:01:31.771Z,15.10
2023-04-30T05:04:17.826Z,15.10
2023-04-30T05:07:04.821Z,15.10
2023-04-30T05:09:51.188Z,15.00
2023-04-30T05:12:36.956Z,15.10
2023-04-30T05:15:23.111Z,15.00
2023-04-30T05:18:10.970Z,14.90
2023-04-30T05:20:56.964Z,14.80
2023-04-30T05:23:42.792Z,14.60
2023-04-30T05:26:29.221Z,14.40
2023-04-30T05:29:15.355Z,14.40
2023-04-30T05:32:02.461Z,14.30
2023-04-30T05:34:48.619Z,14.40
2023-04-30T05:37:34.653Z,14.40
2023-04-30T05:40:20.698Z,14.30
2023-04-30T05:43:08.970Z,14.20
2023-04-30T05:45:55.339Z,14.40
2023-04-30T05:48:41.926Z,14.40
2023-04-30T05:51:28.459Z,14.60
2023-04-30T05:54:14.184Z,14.70
2023-04-30T05:57:00.905Z,14.70
2023-04-30T05:59:47.047Z,14.80
2023-04-30T06:02:33.281Z,14.80
2023-04-30T06:05:19.648Z,15.00
2023-04-30T06:08:06.513Z,14.90
2023-04-30T06:10:53.863Z,15.20
2023-04-30T06:13:41.446Z,15.20
2023-04-30T06:16:27.516Z,15.60
2023-04-30T06:19:13.858Z,15.60
2023-04-30T06:22:00.160Z,15.70
2023-04-30T06:24:46.452Z,15.80
2023-04-30T06:27:32.643Z,15.80
2023-04-30T06:30:19.059Z,15.80
2023-04-30T06:33:05.747Z,15.90
2023-04-30T06:35:54.786Z,16.00
2023-04-30T06:38:42.733Z,16.20
2023-04-30T06:41:28.817Z,16.40
2023-04-30T06:44:17.615Z,16.40
2023-04-30T06:47:06.450Z,16.30
2023-04-30T06:49:53.081Z,16.60
2023-04-30T06:52:48.291Z,16.80
2023-04-30T06:55:38.843Z,16.70
2023-04-30T06:58:26.742Z,16.80
2023-04-30T07:01:16.349Z,16.90
2023-04-30T07:04:04.603Z,17.00
2023-04-30T07:06:51.739Z,17.00
2023-04-30T07:09:37.649Z,16.80
2023-04-30T07:12:23.775Z,16.90
2023-04-30T07:15:09.764Z,16.80
2023-04-30T07:17:55.888Z,17.20
2023-04-30T07:20:42.122Z,17.20
2023-04-30T07:23:30.458Z,17.50
2023-04-30T07:26:16.490Z,17.40
2023-04-30T07:29:04.267Z,17.70
2023-04-30T07:31:50.354Z,17.60
2023-04-30T07:34:35.891Z,17.60
2023-04-30T07:37:22.152Z,17.60
2023-04-30T07:40:15.188Z,17.60
2023-04-30T07:43:05.138Z,17.80
2023-04-30T07:45:51.422Z,18.20
2023-04-30T07:48:38.057Z,18.20
2023-04-30T07:51:24.171Z,18.30
2023-04-30T07:54:09.991Z,18.60
2023-04-30T07:59:50.336Z,18.60
2023-04-30T08:02:37.745Z,18.40
2023-04-30T08:05:23.857Z,18.90
2023-04-30T08:08:09.715Z,19.50
2023-04-30T08:10:55.456Z,19.30
2023-04-30T08:13:42.109Z,19.70
2023-04-30T08:16:28.229Z,20.00
2023-04-30T08:19:14.616Z,20.20
2023-04-30T08:22:01.283Z,19.90
2023-04-30T08:24:47.326Z,19.50
2023-04-30T08:27:33.466Z,19.00
2023-04-30T08:30:20.969Z,19.10
2023-04-30T08:33:09.091Z,19.80
2023-04-30T08:35:56.172Z,20.00
2023-04-30T08:38:42.520Z,19.30
2023-04-30T08:41:34.104Z,19.10
2023-04-30T08:44:24.033Z,19.10
2023-04-30T08:47:15.141Z,19.70
2023-04-30T08:50:01.110Z,19.60
2023-04-30T08:52:47.431Z,20.30
2023-04-30T08:55:34.560Z,19.80
2023-04-30T08:58:21.509Z,19.30
2023-04-30T09:01:09.829Z,19.20
2023-04-30T09:03:56.081Z,19.80
2023-04-30T09:06:42.008Z,20.00
2023-04-30T09:09:37.903Z,19.80
2023-04-30T09:12:24.136Z,19.60
2023-04-30T09:15:11.075Z,20.40
2023-04-30T09:18:11.953Z,20.10
2023-04-30T09:21:04.065Z,21.00
2023-04-30T09:23:56.996Z,20.60
2023-04-30T09:26:43.413Z,19.90
2023-04-30T09:29:38.720Z,20.10
2023-04-30T09:32:24.793Z,21.00
2023-04-30T09:35:32.889Z,21.30
2023-04-30T09:38:30.291Z,21.60
2023-04-30T09:41:42.338Z,20.30
2023-04-30T09:44:30.047Z,20.90
2023-04-30T09:47:17.170Z,20.90
2023-04-30T09:50:04.030Z,21.10
2023-04-30T09:52:54.347Z,20.80
2023-04-30T09:55:44.559Z,21.30
2023-04-30T09:58:38.914Z,21.20
2023-04-30T10:01:28.387Z,22.30
2023-04-30T10:04:15.939Z,22.10
2023-04-30T10:07:06.594Z,21.50
2023-04-30T10:10:00.371Z,21.50
2023-04-30T10:12:53.487Z,21.20
2023-04-30T10:15:43.867Z,21.10
2023-04-30T10:18:35.596Z,20.60
2023-04-30T10:21:23.496Z,20.70
2023-04-30T10:24:11.625Z,20.10
2023-04-30T10:26:58.729Z,20.30
2023-04-30T10:29:46.385Z,20.20
2023-04-30T10:32:39.203Z,20.20
2023-04-30T10:35:29.727Z,20.30
2023-04-30T10:38:18.460Z,20.50
2023-04-30T10:41:07.172Z,20.40
2023-04-30T10:43:59.496Z,20.50
2023-04-30T10:46:47.098Z,20.30
2023-04-30T10:49:33.638Z,20.30
2023-04-30T10:52:30.078Z,20.50
2023-04-30T10:55:19.684Z,20.80
2023-04-30T10:58:24.826Z,20.60
2023-04-30T11:01:16.273Z,20.60
2023-04-30T11:04:11.480Z,20.50
2023-04-30T11:07:07.492Z,20.70
2023-04-30T11:09:57.966Z,21.10
2023-04-30T11:12:51.917Z,20.90
2023-04-30T11:15:42.696Z,20.70
2023-04-30T11:18:28.669Z,21.00
2023-04-30T11:21:14.528Z,21.00
2023-04-30T11:27:34.804Z,20.60
2023-04-30T11:30:20.771Z,20.80
2023-04-30T11:33:07.139Z,20.30
2023-04-30T11:35:53.960Z,20.90
2023-04-30T11:38:43.498Z,20.70
2023-04-30T11:41:29.333Z,20.70
2023-04-30T11:44:28.720Z,20.30
2023-04-30T11:47:18.163Z,19.90
2023-04-30T11:50:03.928Z,19.80
2023-04-30T11:52:52.752Z,19.80
2023-04-30T11:55:41.749Z,19.70
2023-04-30T11:58:29.080Z,19.90
2023-04-30T12:01:15.663Z,19.80
2023-04-30T12:04:04.415Z,20.00
2023-04-30T12:06:50.415Z,20.30
2023-04-30T12:09:54.030Z,20.20
2023-04-30T12:12:43.753Z,19.60
2023-04-30T12:15:31.991Z,19.70
2023-04-30T12:18:18.003Z,19.80
2023-04-30T12:21:04.901Z,20.00
2023-04-30T12:23:51.341Z,19.90
2023-04-30T12:26:40.423Z,19.90
2023-04-30T12:29:26.494Z,20.30
2023-04-30T12:32:16.419Z,20.30
2023-04-30T12:35:02.654Z,20.40
2023-04-30T12:37:55.528Z,20.30
2023-04-30T12:40:49.137Z,20.30
2023-04-30T12:43:36.644Z,20.20
2023-04-30T12:46:29.688Z,20.20
2023-04-30T12:49:31.091Z,20.30
2023-04-30T12:52:17.358Z,20.20
2023-04-30T12:55:16.095Z,20.10
2023-04-30T12:58:14.642Z,20.20
2023-04-30T13:01:01.137Z,20.20
2023-04-30T13:03:47.752Z,20.20
2023-04-30T13:06:52.510Z,20.40
2023-04-30T13:09:38.654Z,20.40
2023-04-30T13:12:24.469Z,20.50
2023-04-30T13:15:10.379Z,21.00
2023-04-30T13:17:56.392Z,21.30
2023-04-30T13:20:43.797Z,21.10
2023-04-30T13:23:31.946Z,20.50
2023-04-30T13:26:19.234Z,20.60
2023-04-30T13:29:05.011Z,20.20
2023-04-30T13:31:51.818Z,20.40
2023-04-30T13:34:38.165Z,20.40
2023-04-30T13:37:24.468Z,20.40
2023-04-30T13:40:10.880Z,20.90
2023-04-30T13:42:57.187Z,21.10
2023-04-30T13:45:43.133Z,20.90
2023-04-30T13:48:29.247Z,21.10
2023-04-30T13:51:17.325Z,21.40
2023-04-30T13:54:03.215Z,21.20
2023-04-30T13:56:49.353Z,21.60
2023-04-30T13:59:35.486Z,21.00
2023-04-30T14:02:21.443Z,20.70
2023-04-30T14:05:07.843Z,20.60
2023-04-30T14:07:54.253Z,20.60
2023-04-30T14:10:40.082Z,20.60
2023-04-30T14:13:26.210Z,20.80
2023-04-30T14:16:12.414Z,20.80
2023-04-30T14:18:58.527Z,21.10
2023-04-30T14:21:44.648Z,21.40
2023-04-30T14:24:31.013Z,21.10
2023-04-30T14:27:17.510Z,21.00
2023-04-30T14:30:04.464Z,20.90
2023-04-30T14:32:50.614Z,20.90
2023-04-30T14:35:37.504Z,21.10
2023-04-30T14:38:23.925Z,21.10
2023-04-30T14:41:10.028Z,21.00
2023-04-30T14:43:56.017Z,21.00
2023-04-30T14:46:42.322Z,21.00
2023-04-30T14:49:28.541Z,20.80
2023-04-30T14:52:14.721Z,21.20
2023-04-30T14:55:00.704Z,21.20
2023-04-30T14:57:46.998Z,20.90
2023-04-30T15:00:33.539Z,20.80
2023-04-30T15:03:19.799Z,21.10
2023-04-30T15:06:07.062Z,21.10
2023-04-30T15:08:53.515Z,21.00
2023-04-30T15:11:39.717Z,21.40
2023-04-30T15:14:26.202Z,21.30
2023-04-30T15:17:12.252Z,21.30
2023-04-30T15:20:01.140Z,20.60
2023-04-30T15:22:47.305Z,20.50
2023-04-30T15:25:33.847Z,20.60
2023-04-30T15:28:19.769Z,20.70
2023-04-30T15:31:06.540Z,20.80
2023-04-30T15:33:53.238Z,21.00
2023-04-30T15:36:39.840Z,21.20
2023-04-30T15:39:27.036Z,21.50
2023-04-30T15:42:13.254Z,21.70
2023-04-30T15:44:58.980Z,21.10
2023-04-30T15:47:45.307Z,22.30
2023-04-30T15:50:31.470Z,21.30
2023-04-30T15:53:17.648Z,21.20
2023-04-30T15:56:04.517Z,21.50
2023-04-30T15:58:50.814Z,21.80
2023-04-30T16:01:37.218Z,21.20
2023-04-30T16:04:23.319Z,21.00
2023-04-30T16:07:09.258Z,20.60
2023-04-30T16:09:56.365Z,20.60
2023-04-30T16:12:42.530Z,20.70
2023-04-30T16:15:30.209Z,20.50
2023-04-30T16:18:17.259Z,20.60
2023-04-30T16:21:03.046Z,20.50
2023-04-30T16:23:48.960Z,20.60
2023-04-30T16:26:37.760Z,20.80
2023-04-30T16:29:23.783Z,20.90
2023-04-30T16:32:10.298Z,20.70
2023-04-30T16:34:57.575Z,20.70
2023-04-30T16:37:43.296Z,20.70
2023-04-30T16:40:29.136Z,20.70
2023-04-30T16:43:15.335Z,20.60
2023-04-30T16:46:01.486Z,20.50
2023-04-30T16:48:48.317Z,20.60
2023-04-30T16:51:35.029Z,20.70
2023-04-30T16:54:20.947Z,20.70
2023-04-30T16:57:07.573Z,20.40
2023-04-30T16:59:53.933Z,20.30
2023-04-30T17:02:41.515Z,20.20
2023-04-30T17:05:27.728Z,20.10
2023-04-30T17:08:13.927Z,20.10
2023-04-30T17:10:59.868Z,20.00
2023-04-30T17:13:45.997Z,20.10
2023-04-30T17:16:32.088Z,20.10
2023-04-30T17:19:18.366Z,20.00
2023-04-30T17:22:04.275Z,20.00
2023-04-30T17:24:50.141Z,20.00
2023-04-30T17:27:36.244Z,20.00
2023-04-30T17:30:22.330Z,19.90
2023-04-30T17:33:08.824Z,20.00
2023-04-30T17:35:55.668Z,20.00
2023-04-30T17:38:41.941Z,19.90
2023-04-30T17:41:27.977Z,19.80
2023-04-30T17:44:14.217Z,19.80
2023-04-30T17:46:59.839Z,19.80
2023-04-30T17:49:45.569Z,19.70
2023-04-30T17:52:31.325Z,19.70
2023-04-30T17:55:17.427Z,19.70
2023-04-30T17:58:04.322Z,19.60
2023-04-30T18:00:51.130Z,19.60
2023-04-30T18:03:37.106Z,19.60
2023-04-30T18:06:22.955Z,19.60
2023-04-30T18:09:09.218Z,19.60
2023-04-30T18:11:56.677Z,19.60
2023-04-30T18:14:43.117Z,19.60
2023-04-30T18:17:29.030Z,19.50
2023-04-30T18:20:15.498Z,19.50
2023-04-30T18:23:01.850Z,19.50
2023-04-30T18:25:47.893Z,19.40
2023-04-30T18:28:34.242Z,19.40
2023-04-30T18:31:20.622Z,19.30
2023-04-30T18:34:06.978Z,19.20
2023-04-30T18:36:52.887Z,19.20
2023-04-30T18:39:39.470Z,19.30
2023-04-30T18:42:25.946Z,19.30
2023-04-30T18:45:12.481Z,19.30
2023-04-30T18:47:58.742Z,19.20
2023-04-30T18:50:44.983Z,19.10
2023-04-30T18:53:31.019Z,19.20
2023-04-30T18:56:17.446Z,19.20
2023-04-30T18:59:03.934Z,19.10
2023-04-30T19:01:50.315Z,19.20
2023-04-30T19:04:36.720Z,19.20
2023-04-30T19:07:22.653Z,19.30
2023-04-30T19:10:08.772Z,19.50
2023-04-30T19:12:56.165Z,19.60
2023-04-30T19:15:46.181Z,19.60
2023-04-30T19:18:32.310Z,19.40
2023-04-30T19:21:21.036Z,19.20
2023-04-30T19:27:40.249Z,18.90
2023-04-30T19:30:26.064Z,18.80
2023-04-30T19:33:12.377Z,18.80
2023-04-30T19:35:58.325Z,18.80
2023-04-30T19:38:44.013Z,18.80
2023-04-30T19:41:30.157Z,18.70
2023-04-30T19:44:18.493Z,18.90
2023-04-30T19:47:05.145Z,19.00
2023-04-30T19:49:51.414Z,19.20
2023-04-30T19:52:37.431Z,19.30
2023-04-30T19:55:23.512Z,19.40
2023-04-30T19:58:10.229Z,19.50
2023-04-30T20:00:55.967Z,19.30
2023-04-30T20:03:42.898Z,19.20
2023-04-30T20:06:29.330Z,18.90
2023-04-30T20:09:17.053Z,18.60
2023-04-30T20:12:04.253Z,18.50
2023-04-30T20:14:50.952Z,18.30
2023-04-30T20:17:38.123Z,18.30
2023-04-30T20:20:24.840Z,18.30
2023-04-30T20:23:15.850Z,18.30
2023-04-30T20:26:02.521Z,18.30
2023-04-30T20:28:48.901Z,18.30
2023-04-30T20:31:35.482Z,18.30
2023-04-30T20:34:21.513Z,18.50
2023-04-30T20:37:07.970Z,18.90
2023-04-30T20:39:54.290Z,18.30
2023-04-30T20:42:41.136Z,17.70
2023-04-30T20:45:27.079Z,17.80
2023-04-30T20:48:14.243Z,17.90
2023-04-30T20:51:00.291Z,17.80
2023-04-30T20:53:46.597Z,17.80
2023-04-30T20:56:33.120Z,17.70
2023-04-30T20:59:19.954Z,17.60
2023-04-30T21:02:06.319Z,17.70
2023-04-30T21:04:52.484Z,18.00
2023-04-30T21:07:39.157Z,17.90
2023-04-30T21:10:24.765Z,17.60
2023-04-30T21:13:13.283Z,17.50
2023-04-30T21:15:59.352Z,17.50
2023-04-30T21:18:46.448Z,17.50
2023-04-30T21:21:32.778Z,17.50
2023-04-30T21:24:18.670Z,17.50
2023-04-30T21:27:05.538Z,17.50
2023-04-30T21:29:51.736Z,17.40
2023-04-30T21:32:37.630Z,17.40
2023-04-30T21:35:24.757Z,17.30
2023-04-30T21:38:14.278Z,17.20
2023-04-30T21:41:00.020Z,17.10
2023-04-30T21:43:46.203Z,17.10
2023-04-30T21:46:32.908Z,17.10
2023-04-30T21:49:18.992Z,17.10
2023-04-30T21:52:08.437Z,17.10
2023-04-30T21:54:54.852Z,17.10
2023-04-30T21:57:41.257Z,17.00
2023-04-30T22:00:28.301Z,17.00
2023-04-30T22:03:16.389Z,17.00
2023-04-30T22:06:02.927Z,17.00
2023-04-30T22:08:48.688Z,17.10
2023-04-30T22:11:34.499Z,17.00
2023-04-30T22:14:20.773Z,17.10
2023-04-30T22:17:06.980Z,17.10
2023-04-30T22:19:54.382Z,17.30
2023-04-30T22:22:40.628Z,17.50
2023-04-30T22:25:26.536Z,17.80
2023-04-30T22:28:14.345Z,17.90
2023-04-30T22:31:00.939Z,17.70
2023-04-30T22:33:47.826Z,17.70
2023-04-30T22:36:33.652Z,17.60
2023-04-30T22:39:19.790Z,17.50
2023-04-30T22:42:06.332Z,17.40
2023-04-30T22:44:53.007Z,17.50
2023-04-30T22:47:39.863Z,17.60
2023-04-30T22:50:25.901Z,17.70
2023-04-30T22:53:13.388Z,17.60
2023-04-30T22:56:00.488Z,17.50
2023-04-30T22:58:46.806Z,17.50
2023-04-30T23:01:33.489Z,17.40
2023-04-30T23:04:19.630Z,17.20
2023-04-30T23:07:05.694Z,17.20
2023-04-30T23:09:51.630Z,17.40
2023-04-30T23:12:37.406Z,17.50
2023-04-30T23:15:23.716Z,17.60
2023-04-30T23:18:09.909Z,17.40
2023-04-30T23:20:59.372Z,17.30
2023-04-30T23:23:45.622Z,17.50
2023-04-30T23:26:31.506Z,17.80
2023-04-30T23:29:17.611Z,17.90
2023-04-30T23:32:04.740Z,18.00
2023-04-30T23:34:50.818Z,17.70
2023-04-30T23:37:37.394Z,17.50
2023-04-30T23:40:23.521Z,17.50
2023-04-30T23:43:09.491Z,17.40
2023-04-30T23:45:55.842Z,17.50
2023-04-30T23:48:42.576Z,17.40
2023-04-30T23:51:28.507Z,17.40
2023-04-30T23:54:14.305Z,17.60
2023-04-30T23:57:00.798Z,17.50
2023-04-30T23:59:47.109Z,17.40
